createdAt,value
2022-10-25T00:01:42.301Z,2.50
2022-10-25T00:14:05.899Z,2.50
2022-10-25T00:16:36.919Z,2.70
2022-10-25T00:19:05.376Z,2.10
2022-10-25T00:36:23.361Z,2.10
2022-10-25T00:38:51.651Z,2.10
2022-10-25T00:41:22.689Z,2.20
2022-10-25T00:43:52.703Z,2.10
2022-10-25T00:46:30.388Z,2.20
2022-10-25T00:49:05.364Z,2.00
2022-10-25T00:51:46.108Z,1.90
2022-10-25T00:54:18.820Z,1.90
2022-10-25T00:56:48.349Z,1.80
2022-10-25T00:59:21.066Z,1.80
2022-10-25T01:04:17.686Z,1.80
2022-10-25T01:06:49.432Z,2.30
2022-10-25T01:09:20.916Z,1.80
2022-10-25T01:14:17.309Z,1.80
2022-10-25T01:17:02.418Z,1.90
2022-10-25T01:20:05.131Z,1.80
2022-10-25T01:22:57.542Z,1.60
2022-10-25T01:25:48.470Z,1.70
2022-10-25T01:28:25.852Z,1.60
2022-10-25T01:31:23.938Z,1.70
2022-10-25T01:34:09.465Z,1.70
2022-10-25T01:36:54.962Z,1.60
2022-10-25T01:39:42.976Z,1.70
2022-10-25T01:42:34.360Z,1.70
2022-10-25T01:45:13.410Z,1.70
2022-10-25T01:47:48.035Z,1.70
2022-10-25T01:50:27.057Z,1.70
2022-10-25T01:55:28.765Z,1.70
2022-10-25T01:58:29.062Z,1.60
2022-10-25T02:01:20.642Z,1.70
2022-10-25T02:03:56.225Z,1.80
2022-10-25T02:06:43.895Z,1.80
2022-10-25T02:09:25.408Z,1.80
2022-10-25T02:11:54.161Z,1.80
2022-10-25T02:14:39.000Z,1.70
2022-10-25T02:17:13.013Z,1.70
2022-10-25T02:19:45.793Z,1.70
2022-10-25T02:22:15.096Z,1.70
2022-10-25T02:24:45.888Z,1.70
2022-10-25T02:27:14.572Z,1.60
2022-10-25T02:34:39.465Z,1.40
2022-10-25T02:39:35.300Z,1.20
2022-10-25T04:20:38.777Z,0.90
2022-10-25T04:37:58.346Z,1.60
2022-10-25T04:42:54.335Z,1.40
2022-10-25T05:29:43.194Z,1.40
2022-10-25T05:37:08.831Z,1.50
2022-10-25T06:06:48.363Z,2.30
2022-10-25T06:14:12.070Z,2.50
2022-10-25T06:21:36.898Z,2.70
2022-10-25T06:29:03.313Z,2.80
2022-10-25T06:31:32.123Z,2.70
2022-10-25T06:34:01.550Z,2.90
2022-10-25T06:36:31.727Z,2.90
2022-10-25T06:39:05.221Z,3.00
2022-10-25T06:41:37.559Z,3.00
2022-10-25T06:44:08.751Z,2.40
2022-10-25T06:54:27.457Z,2.90
2022-10-25T07:29:08.355Z,4.00
2022-10-25T07:31:41.124Z,3.80
2022-10-25T07:34:11.020Z,4.10
2022-10-25T07:46:30.268Z,2.80
2022-10-25T07:48:57.902Z,4.20
2022-10-25T07:53:54.018Z,4.20
2022-10-25T07:58:52.383Z,4.50
2022-10-25T08:01:23.374Z,4.60
2022-10-25T08:03:52.162Z,4.70
2022-10-25T08:06:21.875Z,4.60
2022-10-25T08:08:50.303Z,4.90
2022-10-25T08:11:18.024Z,4.70
2022-10-25T08:13:48.892Z,4.60
2022-10-25T08:33:34.186Z,5.10
2022-10-25T08:36:03.476Z,4.80
2022-10-25T08:38:33.309Z,5.00
2022-10-25T08:41:20.936Z,4.90
2022-10-25T08:44:12.735Z,5.00
2022-10-25T08:46:56.587Z,5.40
2022-10-25T08:49:52.725Z,5.00
2022-10-25T08:52:42.239Z,4.90
2022-10-25T08:55:20.565Z,5.60
2022-10-25T08:57:55.442Z,5.20
2022-10-25T09:00:26.307Z,5.20
2022-10-25T09:02:58.994Z,5.30
2022-10-25T09:06:00.154Z,5.30
2022-10-25T09:08:55.521Z,5.30
2022-10-25T09:11:46.515Z,5.30
2022-10-25T09:14:36.312Z,5.40
2022-10-25T09:17:17.035Z,5.00
2022-10-25T09:20:03.492Z,5.00
2022-10-25T09:22:48.971Z,5.70
2022-10-25T09:25:35.878Z,5.70
2022-10-25T09:28:14.374Z,6.20
2022-10-25T09:30:44.567Z,5.90
2022-10-25T09:35:48.768Z,5.60
2022-10-25T09:38:28.559Z,5.50
2022-10-25T09:41:03.565Z,5.60
2022-10-25T09:43:52.498Z,5.80
2022-10-25T09:46:32.440Z,6.00
2022-10-25T09:49:09.190Z,5.90
2022-10-25T09:52:04.402Z,6.20
2022-10-25T09:54:42.676Z,5.70
2022-10-25T09:57:14.883Z,6.20
2022-10-25T09:59:45.552Z,6.60
2022-10-25T10:02:27.243Z,5.90
2022-10-25T10:04:58.536Z,6.30
2022-10-25T10:07:36.112Z,5.90
2022-10-25T10:10:11.664Z,6.20
2022-10-25T10:13:01.748Z,9.20
2022-10-25T10:15:40.998Z,10.50
2022-10-25T10:18:29.918Z,12.50
2022-10-25T10:21:05.553Z,12.10
2022-10-25T10:23:54.654Z,11.70
2022-10-25T10:26:45.262Z,10.60
2022-10-25T10:29:18.788Z,11.00
2022-10-25T10:31:58.238Z,9.10
2022-10-25T10:34:45.675Z,8.80
2022-10-25T10:37:17.656Z,9.80
2022-10-25T10:40:01.969Z,9.80
2022-10-25T10:42:36.750Z,9.70
2022-10-25T10:45:17.927Z,10.60
2022-10-25T10:47:57.198Z,9.90
2022-10-25T10:50:28.911Z,9.40
2022-10-25T10:53:06.626Z,9.90
2022-10-25T10:55:38.530Z,10.80
2022-10-25T10:58:17.749Z,11.20
2022-10-25T11:00:57.456Z,10.90
2022-10-25T11:03:58.872Z,12.20
2022-10-25T11:06:33.846Z,13.90
2022-10-25T11:09:22.310Z,12.80
2022-10-25T11:12:07.102Z,13.00
2022-10-25T11:17:32.972Z,15.50
2022-10-25T11:20:28.136Z,15.70
2022-10-25T11:23:11.044Z,16.40
2022-10-25T11:25:54.123Z,16.00
2022-10-25T11:28:47.168Z,16.70
2022-10-25T11:31:33.478Z,16.90
2022-10-25T11:34:32.958Z,18.40
2022-10-25T11:37:21.225Z,15.10
2022-10-25T11:40:19.327Z,16.00
2022-10-25T11:43:24.240Z,18.60
2022-10-25T11:46:05.603Z,19.00
2022-10-25T11:48:58.762Z,18.50
2022-10-25T11:51:52.720Z,17.40
2022-10-25T11:54:41.771Z,16.90
2022-10-25T11:57:30.063Z,17.80
2022-10-25T12:00:18.334Z,18.70
2022-10-25T12:03:12.420Z,17.80
2022-10-25T12:06:11.499Z,16.70
2022-10-25T12:08:54.602Z,15.50
2022-10-25T12:11:28.558Z,16.40
2022-10-25T12:14:00.611Z,15.90
2022-10-25T12:16:31.135Z,15.00
2022-10-25T12:19:10.099Z,16.10
2022-10-25T12:21:45.459Z,16.40
2022-10-25T12:24:45.143Z,17.20
2022-10-25T12:27:16.691Z,18.30
2022-10-25T12:29:51.267Z,17.80
2022-10-25T12:32:26.644Z,16.40
2022-10-25T12:34:59.434Z,12.70
2022-10-25T12:37:49.082Z,16.50
2022-10-25T12:40:21.116Z,15.80
2022-10-25T12:43:20.026Z,14.40
2022-10-25T12:46:04.474Z,11.40
2022-10-25T12:49:08.238Z,8.50
2022-10-25T12:51:43.973Z,7.70
2022-10-25T12:54:42.381Z,6.80
2022-10-25T12:57:38.881Z,6.80
2022-10-25T13:00:17.268Z,6.70
2022-10-25T13:03:19.276Z,6.70
2022-10-25T13:06:10.486Z,6.80
2022-10-25T13:08:41.075Z,6.40
2022-10-25T13:11:10.132Z,6.50
2022-10-25T13:13:46.568Z,8.50
2022-10-25T13:16:25.635Z,10.60
2022-10-25T13:19:35.959Z,9.90
2022-10-25T13:22:31.523Z,10.50
2022-10-25T13:25:02.858Z,9.40
2022-10-25T13:27:32.742Z,7.70
2022-10-25T13:30:25.213Z,6.70
2022-10-25T13:33:26.057Z,6.50
2022-10-25T13:36:02.239Z,6.40
2022-10-25T13:38:38.874Z,6.20
2022-10-25T13:41:15.333Z,6.10
2022-10-25T13:44:03.664Z,6.30
2022-10-25T13:46:37.602Z,6.50
2022-10-25T13:49:37.196Z,6.70
2022-10-25T13:52:22.835Z,6.60
2022-10-25T13:54:55.583Z,6.30
2022-10-25T13:57:49.398Z,6.10
2022-10-25T14:00:30.176Z,6.10
2022-10-25T14:03:34.823Z,6.30
2022-10-25T14:06:17.523Z,6.40
2022-10-25T14:08:53.500Z,6.10
2022-10-25T14:11:36.024Z,5.90
2022-10-25T14:14:35.883Z,6.20
2022-10-25T14:17:28.031Z,6.00
2022-10-25T14:20:04.806Z,5.80
2022-10-25T14:22:40.373Z,5.60
2022-10-25T14:25:27.421Z,5.80
2022-10-25T14:28:18.268Z,5.50
2022-10-25T14:31:05.861Z,5.40
2022-10-25T14:33:44.047Z,5.70
2022-10-25T14:36:40.703Z,5.10
2022-10-25T14:39:20.019Z,5.30
2022-10-25T14:42:01.407Z,5.60
2022-10-25T14:44:33.201Z,5.10
2022-10-25T14:49:32.627Z,5.00
2022-10-25T14:52:07.195Z,5.00
2022-10-25T14:54:40.103Z,4.80
2022-10-25T14:57:10.202Z,5.00
2022-10-25T14:59:46.326Z,5.10
2022-10-25T15:02:24.749Z,5.10
2022-10-25T15:04:56.228Z,5.10
2022-10-25T15:07:31.222Z,5.00
2022-10-25T15:10:02.038Z,5.00
2022-10-25T15:12:34.410Z,4.80
2022-10-25T15:15:26.267Z,4.70
2022-10-25T15:20:32.248Z,4.60
2022-10-25T15:23:17.146Z,4.60
2022-10-25T15:28:19.907Z,4.40
2022-10-25T15:31:04.569Z,4.30
2022-10-25T15:33:33.611Z,4.40
2022-10-25T15:36:04.282Z,4.50
2022-10-25T15:39:05.415Z,4.50
2022-10-25T15:43:54.075Z,4.40
2022-10-25T15:46:31.119Z,4.40
2022-10-25T15:49:03.820Z,4.20
2022-10-25T15:51:40.225Z,4.20
2022-10-25T15:54:18.068Z,4.20
2022-10-25T15:59:18.807Z,4.20
2022-10-25T16:01:53.509Z,4.10
2022-10-25T16:04:22.289Z,4.00
2022-10-25T16:06:50.836Z,3.90
2022-10-25T16:11:54.342Z,4.30
2022-10-25T16:14:26.488Z,4.10
2022-10-25T16:16:54.344Z,3.50
2022-10-25T16:21:54.990Z,3.70
2022-10-25T16:26:53.786Z,3.90
2022-10-25T16:29:27.116Z,4.40
2022-10-25T16:36:56.825Z,3.60
2022-10-25T16:39:26.094Z,4.10
2022-10-25T16:41:56.095Z,3.00
2022-10-25T16:44:25.381Z,3.60
2022-10-25T16:49:23.709Z,3.60
2022-10-25T16:51:52.657Z,3.60
2022-10-25T17:01:56.667Z,3.20
2022-10-25T17:04:25.247Z,3.30
2022-10-25T17:09:23.481Z,3.30
2022-10-25T17:11:53.905Z,3.60
2022-10-25T17:14:27.834Z,2.90
2022-10-25T17:19:34.069Z,3.00
2022-10-25T17:22:03.207Z,3.10
2022-10-25T17:27:07.631Z,3.00
2022-10-25T17:29:37.484Z,3.00
2022-10-25T17:34:37.362Z,1.70
2022-10-25T17:37:09.662Z,3.20
2022-10-25T17:39:38.716Z,2.60
2022-10-25T17:42:08.034Z,2.70
2022-10-25T17:49:40.123Z,2.80
2022-10-25T17:57:09.363Z,2.60
2022-10-25T17:59:38.688Z,2.70
2022-10-25T18:02:07.359Z,2.70
2022-10-25T18:04:53.619Z,2.70
2022-10-25T18:07:32.580Z,2.20
2022-10-25T18:24:59.885Z,2.20
2022-10-25T18:35:04.226Z,2.60
2022-10-25T18:40:11.461Z,2.20
2022-10-25T18:42:41.303Z,2.50
2022-10-25T18:45:11.785Z,1.70
2022-10-25T18:55:08.223Z,2.40
2022-10-25T19:00:09.312Z,2.20
2022-10-25T19:02:39.491Z,2.00
2022-10-25T19:05:11.806Z,2.00
2022-10-25T19:07:41.428Z,2.10
2022-10-25T19:12:42.376Z,1.90
2022-10-25T19:15:12.221Z,1.90
2022-10-25T19:20:11.902Z,1.60
2022-10-25T19:22:42.089Z,0.70
2022-10-25T19:27:41.183Z,2.00
2022-10-25T19:30:11.213Z,1.60
2022-10-25T19:35:12.546Z,1.50
2022-10-25T19:37:42.365Z,1.80
2022-10-25T19:40:13.260Z,1.60
2022-10-25T19:45:13.210Z,1.50
2022-10-25T19:50:12.785Z,1.60
2022-10-25T19:52:42.146Z,1.60
2022-10-25T19:55:11.502Z,1.60
2022-10-25T19:57:41.483Z,1.00
2022-10-25T20:00:13.596Z,1.50
2022-10-25T20:10:15.324Z,1.60
2022-10-25T20:12:45.134Z,1.60
2022-10-25T20:15:17.507Z,1.90
2022-10-25T20:20:17.663Z,1.90
2022-10-25T20:22:47.213Z,1.40
2022-10-25T20:30:16.119Z,1.70
2022-10-25T20:37:47.553Z,1.20
2022-10-25T20:40:17.884Z,1.20
2022-10-25T20:42:47.057Z,2.90
2022-10-25T20:45:21.677Z,1.10
2022-10-25T20:47:51.689Z,1.50
2022-10-25T20:53:09.348Z,1.20
2022-10-25T20:55:40.996Z,1.70
2022-10-25T21:00:41.570Z,1.00
2022-10-25T21:03:10.645Z,1.00
2022-10-25T21:08:15.516Z,1.00
2022-10-25T21:10:43.382Z,0.70
2022-10-25T21:35:23.439Z,0.90
2022-10-25T21:47:46.566Z,1.10
2022-10-25T21:50:17.725Z,1.30
2022-10-25T21:52:49.610Z,1.20
2022-10-25T21:57:51.943Z,1.10
2022-10-25T22:00:24.951Z,1.70
2022-10-25T22:02:55.269Z,0.80
2022-10-25T23:04:34.050Z,1.30
2022-10-25T23:19:20.525Z,1.30
2022-10-25T23:29:13.302Z,1.10
2022-10-25T23:39:07.481Z,1.10
